createdAt,value
2019-04-29T00:04:05.737Z,6.60
2019-04-29T00:09:13.808Z,6.57
2019-04-29T00:14:17.435Z,6.64
2019-04-29T00:19:38.556Z,6.71
2019-04-29T00:24:42.110Z,6.74
2019-04-29T00:29:45.496Z,6.70
2019-04-29T00:34:48.884Z,6.59
2019-04-29T00:40:09.743Z,6.52
2019-04-29T00:45:14.337Z,6.47
2019-04-29T00:50:17.722Z,6.40
2019-04-29T00:55:22.744Z,6.30
2019-04-29T01:00:36.575Z,6.21
2019-04-29T01:05:39.959Z,6.20
2019-04-29T01:10:43.347Z,6.16
2019-04-29T01:15:46.734Z,6.05
2019-04-29T01:20:50.191Z,6.00
2019-04-29T01:25:55.210Z,6.05
2019-04-29T01:31:09.992Z,6.09
2019-04-29T01:36:17.730Z,6.29
2019-04-29T01:41:25.784Z,6.33
2019-04-29T01:46:29.713Z,6.25
2019-04-29T01:51:33.112Z,6.11
2019-04-29T01:56:36.487Z,6.04
2019-04-29T02:01:39.877Z,6.14
2019-04-29T02:06:43.265Z,6.15
2019-04-29T02:11:46.654Z,6.16
2019-04-29T02:16:50.042Z,6.16
2019-04-29T02:22:12.898Z,6.39
2019-04-29T02:27:16.288Z,6.53
2019-04-29T02:32:19.673Z,6.51
2019-04-29T02:37:24.937Z,6.63
2019-04-29T02:42:46.009Z,6.60
2019-04-29T02:47:49.404Z,6.58
2019-04-29T02:52:53.030Z,6.68
2019-04-29T02:57:58.057Z,6.76
2019-04-29T03:03:08.730Z,6.76
2019-04-29T03:08:12.439Z,6.70
2019-04-29T03:13:15.901Z,6.78
2019-04-29T03:18:20.765Z,6.88
2019-04-29T03:23:26.004Z,6.89
2019-04-29T03:28:29.459Z,7.00
2019-04-29T03:33:32.927Z,7.01
2019-04-29T03:38:36.306Z,7.03
2019-04-29T03:43:39.712Z,7.03
2019-04-29T03:48:43.089Z,7.04
2019-04-29T03:53:46.478Z,7.13
2019-04-29T03:58:49.866Z,7.16
2019-04-29T04:04:03.562Z,7.20
2019-04-29T04:09:08.660Z,7.35
2019-04-29T04:14:12.047Z,7.31
2019-04-29T04:19:15.506Z,7.32
2019-04-29T04:24:18.901Z,7.45
2019-04-29T04:29:22.296Z,7.57
2019-04-29T04:34:25.681Z,7.57
2019-04-29T04:39:30.952Z,7.55
2019-04-29T04:44:49.239Z,7.68
2019-04-29T04:49:52.666Z,7.78
2019-04-29T04:54:56.074Z,7.66
2019-04-29T04:59:59.447Z,7.81
2019-04-29T05:05:02.836Z,7.98
2019-04-29T05:10:06.289Z,8.12
2019-04-29T05:15:09.823Z,8.19
2019-04-29T05:20:13.354Z,8.24
2019-04-29T05:25:16.984Z,8.21
2019-04-29T05:30:20.618Z,8.26
2019-04-29T05:35:40.219Z,8.35
2019-04-29T05:40:50.100Z,8.40
2019-04-29T05:46:07.160Z,8.44
2019-04-29T05:51:27.283Z,8.49
2019-04-29T05:56:31.751Z,8.58
2019-04-29T06:01:35.140Z,8.64
2019-04-29T06:06:38.540Z,8.80
2019-04-29T06:11:41.939Z,8.92
2019-04-29T06:16:45.330Z,8.95
2019-04-29T06:21:48.726Z,9.11
2019-04-29T06:26:52.362Z,9.27
2019-04-29T06:31:55.992Z,9.45
2019-04-29T06:36:59.380Z,9.59
2019-04-29T06:42:02.769Z,9.75
2019-04-29T06:47:06.166Z,9.84
2019-04-29T06:52:09.560Z,10.00
2019-04-29T06:57:12.955Z,10.24
2019-04-29T07:02:16.600Z,10.32
2019-04-29T07:07:19.996Z,10.56
2019-04-29T07:12:23.394Z,10.62
2019-04-29T07:17:26.792Z,10.79
2019-04-29T07:22:31.198Z,10.94
2019-04-29T07:27:42.798Z,11.24
2019-04-29T07:32:42.109Z,11.43
2019-04-29T07:37:44.907Z,11.49
2019-04-29T07:42:48.540Z,11.44
2019-04-29T07:47:56.615Z,11.32
2019-04-29T07:52:58.623Z,11.56
2019-04-29T07:58:02.022Z,11.55
2019-04-29T08:03:07.662Z,11.30
2019-04-29T08:08:11.336Z,11.45
2019-04-29T08:13:15.167Z,11.63
2019-04-29T08:18:18.799Z,11.78
2019-04-29T08:23:22.194Z,11.80
2019-04-29T08:28:25.596Z,11.39
2019-04-29T08:33:28.989Z,11.80
2019-04-29T08:38:32.388Z,12.02
2019-04-29T08:43:57.823Z,12.07
2019-04-29T08:49:01.033Z,11.93
2019-04-29T08:54:03.886Z,12.26
2019-04-29T08:59:07.282Z,12.22
2019-04-29T09:04:10.684Z,12.17
2019-04-29T09:09:28.844Z,12.43
2019-04-29T09:14:19.430Z,12.33
2019-04-29T09:19:22.826Z,12.30
2019-04-29T09:24:26.225Z,12.55
2019-04-29T09:29:38.937Z,12.35
2019-04-29T09:34:42.331Z,12.43
2019-04-29T09:39:47.199Z,12.23
2019-04-29T09:45:08.068Z,12.36
2019-04-29T09:50:11.700Z,12.12
2019-04-29T09:55:19.906Z,12.14
2019-04-29T10:00:40.817Z,12.32
2019-04-29T10:05:52.793Z,12.59
2019-04-29T10:10:57.623Z,12.87
2019-04-29T10:16:07.726Z,12.56
2019-04-29T10:21:16.722Z,12.61
2019-04-29T10:26:17.939Z,12.53
2019-04-29T10:31:22.938Z,12.56
2019-04-29T10:36:26.568Z,12.47
2019-04-29T10:41:36.054Z,12.54
2019-04-29T10:46:50.084Z,12.42
2019-04-29T10:51:57.952Z,12.53
2019-04-29T10:56:59.343Z,12.46
2019-04-29T11:02:14.314Z,12.19
2019-04-29T11:07:26.327Z,12.39
2019-04-29T11:12:24.947Z,12.32
2019-04-29T11:17:28.811Z,12.24
2019-04-29T11:22:38.233Z,12.01
2019-04-29T11:27:40.661Z,11.81
2019-04-29T11:32:51.568Z,12.11
2019-04-29T11:37:59.656Z,12.01
2019-04-29T11:43:00.139Z,11.96
2019-04-29T11:48:03.772Z,11.77
2019-04-29T11:53:08.736Z,11.30
2019-04-29T11:58:19.507Z,11.28
2019-04-29T12:03:29.970Z,11.44
2019-04-29T12:08:33.367Z,11.44
2019-04-29T12:13:50.267Z,11.57
2019-04-29T12:18:58.210Z,11.80
2019-04-29T12:24:01.882Z,11.80
2019-04-29T12:29:05.333Z,11.59
2019-04-29T12:34:19.487Z,11.81
2019-04-29T12:39:44.958Z,11.79
2019-04-29T12:44:50.767Z,11.28
2019-04-29T12:49:54.168Z,11.61
2019-04-29T12:55:01.727Z,11.68
2019-04-29T13:00:07.702Z,11.82
2019-04-29T13:05:10.159Z,11.91
2019-04-29T13:10:21.139Z,11.85
2019-04-29T13:15:48.442Z,11.90
2019-04-29T13:20:52.124Z,11.44
2019-04-29T13:25:55.877Z,10.89
2019-04-29T13:30:59.374Z,10.33
2019-04-29T13:36:02.826Z,9.96
2019-04-29T13:41:13.635Z,10.17
2019-04-29T13:46:15.836Z,10.09
2019-04-29T13:51:35.343Z,10.08
2019-04-29T13:56:34.955Z,10.34
2019-04-29T14:01:33.668Z,10.47
2019-04-29T14:06:39.629Z,10.50
2019-04-29T14:11:43.020Z,10.55
2019-04-29T14:16:47.540Z,10.64
2019-04-29T14:21:51.775Z,10.64
2019-04-29T14:26:55.238Z,10.69
2019-04-29T14:32:01.347Z,10.68
2019-04-29T14:37:19.660Z,10.53
2019-04-29T14:42:20.768Z,10.50
2019-04-29T14:47:25.893Z,10.62
2019-04-29T14:52:29.211Z,10.58
2019-04-29T14:57:32.610Z,10.63
2019-04-29T15:02:36.276Z,10.53
2019-04-29T15:07:39.706Z,10.47
2019-04-29T15:12:51.758Z,10.45
2019-04-29T15:17:51.495Z,10.38
2019-04-29T15:22:55.275Z,10.45
2019-04-29T15:27:58.664Z,10.42
2019-04-29T15:33:02.087Z,10.34
2019-04-29T15:38:05.497Z,10.33
2019-04-29T15:43:09.232Z,10.25
2019-04-29T15:48:12.805Z,10.12
2019-04-29T15:53:16.207Z,10.03
2019-04-29T15:58:22.575Z,9.87
2019-04-29T16:03:24.761Z,9.79
2019-04-29T16:08:32.722Z,10.00
2019-04-29T16:13:36.191Z,9.97
2019-04-29T16:18:39.772Z,10.01
2019-04-29T16:23:43.403Z,10.07
2019-04-29T16:28:46.804Z,10.08
2019-04-29T16:33:54.608Z,9.84
2019-04-29T16:38:55.317Z,9.75
2019-04-29T16:43:59.028Z,9.59
2019-04-29T16:49:02.490Z,9.53
2019-04-29T16:54:05.881Z,9.36
2019-04-29T16:59:09.688Z,9.22
2019-04-29T17:04:13.118Z,9.16
2019-04-29T17:09:23.051Z,9.27
2019-04-29T17:14:23.599Z,9.30
2019-04-29T17:19:26.935Z,9.34
2019-04-29T17:24:30.337Z,9.27
2019-04-29T17:29:55.549Z,9.17
2019-04-29T17:35:00.057Z,9.23
2019-04-29T17:40:05.399Z,9.18
2019-04-29T17:45:12.255Z,9.19
2019-04-29T17:50:30.427Z,9.12
2019-04-29T17:55:38.750Z,9.09
2019-04-29T18:00:59.425Z,8.99
2019-04-29T18:06:10.734Z,9.00
2019-04-29T18:11:15.006Z,8.93
2019-04-29T18:16:26.061Z,9.01
2019-04-29T18:21:27.077Z,9.04
2019-04-29T18:26:32.110Z,9.04
2019-04-29T18:31:35.806Z,9.00
2019-04-29T18:36:39.193Z,9.04
2019-04-29T18:41:42.581Z,9.07
2019-04-29T18:46:53.396Z,8.94
2019-04-29T18:51:51.105Z,8.93
2019-04-29T18:56:55.908Z,8.81
2019-04-29T19:02:01.015Z,8.83
2019-04-29T19:07:05.426Z,8.81
2019-04-29T19:12:09.026Z,8.81
2019-04-29T19:17:12.666Z,8.87
2019-04-29T19:22:16.191Z,8.88
2019-04-29T19:27:19.591Z,8.80
2019-04-29T19:32:24.676Z,8.87
2019-04-29T19:37:32.230Z,8.84
2019-04-29T19:42:35.922Z,8.87
2019-04-29T19:47:38.545Z,8.89
2019-04-29T19:52:41.938Z,8.90
2019-04-29T19:57:47.988Z,8.92
2019-04-29T20:02:51.206Z,8.88
2019-04-29T20:07:58.341Z,8.91
2019-04-29T20:13:00.348Z,8.88
2019-04-29T20:18:26.094Z,8.88
2019-04-29T20:23:28.076Z,8.86
2019-04-29T20:28:31.653Z,8.85
2019-04-29T20:33:35.286Z,8.85
2019-04-29T20:38:39.303Z,8.88
2019-04-29T20:43:42.934Z,8.95
2019-04-29T20:48:50.450Z,8.88
2019-04-29T20:54:09.112Z,8.78
2019-04-29T20:59:15.322Z,8.72
2019-04-29T21:04:30.992Z,8.70
2019-04-29T21:09:27.471Z,8.72
2019-04-29T21:14:33.956Z,8.72
2019-04-29T21:19:36.171Z,8.68
2019-04-29T21:24:39.571Z,8.70
2019-04-29T21:29:42.966Z,8.75
2019-04-29T21:34:51.070Z,8.72
2019-04-29T21:40:07.138Z,8.70
2019-04-29T21:45:12.051Z,8.70
2019-04-29T21:50:17.030Z,8.68
2019-04-29T21:55:25.142Z,8.68
2019-04-29T22:00:26.024Z,8.69
2019-04-29T22:05:29.428Z,8.69
2019-04-29T22:10:35.024Z,8.61
2019-04-29T22:15:42.318Z,8.55
2019-04-29T22:20:44.461Z,8.62
2019-04-29T22:25:47.864Z,8.66
2019-04-29T22:30:54.788Z,8.63
2019-04-29T22:35:56.375Z,8.62
2019-04-29T22:41:01.409Z,8.65
2019-04-29T22:46:09.279Z,8.58
2019-04-29T22:51:13.925Z,8.63
2019-04-29T22:56:15.990Z,8.65
2019-04-29T23:01:19.392Z,8.67
2019-04-29T23:06:23.031Z,8.68
2019-04-29T23:11:26.432Z,8.66
2019-04-29T23:16:31.553Z,8.64
2019-04-29T23:21:47.251Z,8.68
2019-04-29T23:26:50.683Z,8.66
2019-04-29T23:31:55.388Z,8.73
2019-04-29T23:36:58.865Z,8.72
2019-04-29T23:42:06.423Z,8.74
2019-04-29T23:47:10.255Z,8.70
2019-04-29T23:52:13.460Z,8.75
2019-04-29T23:57:23.547Z,8.79
